罗盘
风向 的 风向 的 风向 到 风向 320° Teuge International Airport 8/26
风: 3 kt, 1 beaufort

1 kt

2 kt
改变
0 2.000 4.000 6.000 8.000 10.000
FEW 3.900 ft
SCT 4.900 ft
OVC 5.400 ft
METAR EHDL 170825Z AUTO 32003KT 230V330 9999 FEW039 SCT049 OVC054 18/10 Q1021 BLU

METAR Teuge International Airport

Teuge International Airport是Deventer,荷兰中的中型机场。 该机场有一条跑道: 8/26.

这份报告是针对2022年5月17日 10:25, 当地时间在Deelen Air Base进行的。

机场观察

风向为320°,速度为3 kt。 风向在230°和330°之间变化。

可见度为10 km 或者更多。

有几云在3.900 ft的高度, 疏云,零星散落的云朵在4.900 ft的高度 和 乌云密布在5.400 ft的高度。 破损或更高的上限为5.400 ft。

温度和风寒是18 °C。 露点为10 °C,相对湿度为60%。 海平面上的气压为1021 hPa (QNH)。

白天

今天,太阳从05:37升起,在21:26降落。 这适用于Teuge International Airport,世界夏令时可能有所不同。 当地时间与世界标准时间之间的时差为+2 小时。 夏令时目前正在进行中。

公司介绍

在这个机场,你可以找到飞行学校。 本场上唯一已知的公司是Vliegles.nl。

体会

在这个机场有飞行课程。 你可以在没有任何经验的情况下预订飞行课程。 在Teuge International Airport预订最多的飞行课程类型是Cessna flying lesson。 这些课程的价格从€ 149开始。 在这里阅读更多关于Cessna flying lesson的信息。你也可以在这个网站上进行预订。

您会帮助我们保持Metar-Taf.com正常运行吗?
您的贡献有助于网站的进一步开发并支付费用。

没有更多广告

您是捐款5美元还是更多?然后,我们将永远不会再向您展示广告,这是我们永恒的感谢!
捐赠前先登录

跑道

Id 标题 侧风 逆风
8/26 084°-264° 2 kt 1 kt

逆风成分最大的方向会被突出显示,并用于横风计算。 这并不一定意味着这个方向在使用。

乌云

3.900 ft FEW 几云
4.900 ft SCT 疏云,零星散落的云朵
5.400 ft OVC 乌云密布

温度 & 天气

温度 18 °C
露点 10 °C
相对湿度 60%
Kp-index 2  

公司介绍

新增公司

下载我们的应用程序

在您的手机和平板电脑上轻松访问所有航空天气。
有许多网站上没有的功能,如离线支持和个人机场列表。

Studio Eveline

Benalmádena
España